Time;durP1;ratioP1;P1;durP2;ratioP2;P2;SDS_P1;SDS_P2;PMS_P1;PMS_P2;Temp;Humidity;BMP_temperature;BMP_pressure;BME280_temperature;BME280_humidity;BME280_pressure;Samples;Min_cycle;Max_cycle;Signal;HPM_P1;HPM_P2
2022/08/15 00:00:08;;;;;;;13.90;11.45;;;;;;;;;;4909235;29;20545;-84
2022/08/15 00:02:34;;;;;;;16.10;11.88;;;;;;;;;;4875907;29;20114;-84
2022/08/15 00:05:01;;;;;;;12.18;10.95;;;;;;;;;;4894396;29;20500;-85
2022/08/15 00:07:26;;;;;;;16.60;12.70;;;;;;;;;;4879007;29;20043;-83
2022/08/15 00:09:51;;;;;;;17.05;13.52;;;;;;;;;;4916167;29;20035;-83
2022/08/15 00:12:17;;;;;;;13.30;12.00;;;;;;;;;;4926035;29;20060;-84
2022/08/15 00:14:42;;;;;;;14.00;12.50;;;;;;;;;;4878189;29;20032;-83
2022/08/15 00:17:09;;;;;;;14.43;12.07;;;;;;;;;;4877544;29;20068;-82
2022/08/15 00:19:36;;;;;;;18.45;13.15;;;;;;;;;;4862571;29;20039;-83
2022/08/15 00:22:04;;;;;;;14.85;11.68;;;;;;;;;;4893390;29;20344;-82
2022/08/15 00:24:31;;;;;;;14.20;12.65;;;;;;;;;;4860231;29;20032;-83
2022/08/15 00:26:58;;;;;;;13.82;11.95;;;;;;;;;;4864565;29;20047;-83
2022/08/15 00:29:24;;;;;;;14.27;12.98;;;;;;;;;;4930090;29;20040;-83
2022/08/15 00:31:53;;;;;;;17.25;12.00;;;;;;;;;;4914501;29;20024;-83
2022/08/15 00:34:18;;;;;;;15.45;11.20;;;;;;;;;;4884448;29;20028;-83
2022/08/15 00:36:46;;;;;;;21.33;11.98;;;;;;;;;;4884901;29;20179;-83
2022/08/15 00:39:12;;;;;;;14.93;12.50;;;;;;;;;;4867558;29;20036;-83
2022/08/15 00:41:40;;;;;;;12.85;11.50;;;;;;;;;;4898179;29;20535;-84
2022/08/15 00:44:24;;;;;;;14.30;11.43;;;;;;;;;;4917837;29;20498;-84
2022/08/15 00:46:52;;;;;;;16.55;11.68;;;;;;;;;;4903884;29;20023;-84
2022/08/15 00:49:18;;;;;;;12.75;11.40;;;;;;;;;;4901587;29;20110;-83
2022/08/15 00:51:53;;;;;;;13.88;11.95;;;;;;;;;;4918511;29;20480;-83
2022/08/15 00:54:31;;;;;;;21.92;11.73;;;;;;;;;;4903366;29;20440;-83
2022/08/15 00:56:59;;;;;;;19.17;11.45;;;;;;;;;;4873449;29;20047;-82
2022/08/15 00:59:27;;;;;;;14.90;11.27;;;;;;;;;;4901586;29;20027;-82
2022/08/15 01:01:53;;;;;;;15.50;12.77;;;;;;;;;;4903091;29;20161;-82
2022/08/15 01:04:18;;;;;;;12.60;10.95;;;;;;;;;;4898884;29;20032;-82
2022/08/15 01:06:45;;;;;;;15.73;11.80;;;;;;;;;;4916982;29;20067;-83
2022/08/15 01:09:11;;;;;;;17.25;12.15;;;;;;;;;;4916447;29;20032;-83
2022/08/15 01:11:48;;;;;;;15.35;12.45;;;;;;;;;;4889701;29;20034;-84
2022/08/15 01:14:14;;;;;;;13.38;10.90;;;;;;;;;;4903599;29;20036;-83
2022/08/15 01:16:40;;;;;;;13.10;11.80;;;;;;;;;;4919785;29;20440;-83
2022/08/15 01:19:09;;;;;;;13.30;11.88;;;;;;;;;;4941844;29;20077;-83
2022/08/15 01:21:38;;;;;;;13.02;11.07;;;;;;;;;;4918032;29;20099;-83
2022/08/15 01:24:26;;;;;;;12.55;11.25;;;;;;;;;;4918788;29;20028;-82
2022/08/15 01:26:52;;;;;;;12.48;10.55;;;;;;;;;;4915488;29;20090;-83
2022/08/15 01:29:17;;;;;;;12.57;11.38;;;;;;;;;;4916032;29;20035;-83
2022/08/15 01:31:43;;;;;;;14.32;12.05;;;;;;;;;;4934002;29;20519;-83
2022/08/15 01:34:08;;;;;;;12.02;10.82;;;;;;;;;;4917529;29;20067;-83
2022/08/15 01:36:34;;;;;;;13.73;11.18;;;;;;;;;;4917978;29;20051;-83
2022/08/15 01:39:12;;;;;;;12.05;10.85;;;;;;;;;;4900431;29;20020;-83
2022/08/15 01:42:03;;;;;;;12.45;11.15;;;;;;;;;;4877859;29;20075;-83
2022/08/15 01:44:38;;;;;;;13.45;11.15;;;;;;;;;;4876898;29;20036;-84
2022/08/15 01:47:35;;;;;;;15.13;11.90;;;;;;;;;;4882671;29;20043;-83
2022/08/15 01:50:07;;;;;;;12.45;11.23;;;;;;;;;;4893858;29;20064;-83
2022/08/15 01:53:15;;;;;;;16.23;11.93;;;;;;;;;;4914980;29;20497;-84
2022/08/15 01:56:12;;;;;;;13.57;12.02;;;;;;;;;;4897546;29;20054;-82
2022/08/15 01:58:39;;;;;;;14.30;12.32;;;;;;;;;;4898032;29;20485;-83
2022/08/15 02:01:08;;;;;;;13.45;11.30;;;;;;;;;;4883937;29;20036;-83
2022/08/15 02:03:34;;;;;;;16.95;12.55;;;;;;;;;;4867372;29;20451;-83
2022/08/15 02:06:09;;;;;;;14.48;12.98;;;;;;;;;;4867983;29;20373;-82
2022/08/15 02:08:34;;;;;;;13.20;11.73;;;;;;;;;;4883293;29;20374;-82
2022/08/15 02:11:00;;;;;;;15.80;12.75;;;;;;;;;;4880935;29;20028;-82
2022/08/15 02:13:25;;;;;;;14.18;12.32;;;;;;;;;;4915258;29;20067;-83
2022/08/15 02:15:51;;;;;;;15.10;13.57;;;;;;;;;;4912713;29;20132;-82
2022/08/15 02:18:17;;;;;;;15.15;13.57;;;;;;;;;;4899148;29;20070;-83
2022/08/15 02:20:42;;;;;;;15.90;14.23;;;;;;;;;;4894816;29;20556;-83
2022/08/15 02:23:08;;;;;;;15.68;13.77;;;;;;;;;;4882941;29;20115;-84
2022/08/15 02:25:33;;;;;;;15.32;13.82;;;;;;;;;;4897711;29;20020;-83
2022/08/15 02:27:58;;;;;;;15.70;14.05;;;;;;;;;;4866299;29;20344;-83
2022/08/15 02:30:26;;;;;;;14.57;13.07;;;;;;;;;;4880082;29;20103;-83
2022/08/15 02:32:52;;;;;;;15.05;13.25;;;;;;;;;;4882796;29;20083;-83
2022/08/15 02:35:17;;;;;;;15.38;13.77;;;;;;;;;;4866537;29;20051;-83
2022/08/15 02:37:43;;;;;;;16.77;13.43;;;;;;;;;;4850895;29;20477;-84
2022/08/15 02:40:11;;;;;;;17.98;15.57;;;;;;;;;;4882753;29;20028;-84
2022/08/15 02:42:38;;;;;;;14.73;13.23;;;;;;;;;;4929745;29;20043;-84
2022/08/15 02:45:10;;;;;;;14.35;12.85;;;;;;;;;;4915779;29;20424;-84
2022/08/15 02:47:35;;;;;;;13.75;12.30;;;;;;;;;;4900902;29;20506;-84
2022/08/15 02:50:02;;;;;;;13.75;12.40;;;;;;;;;;4931261;29;20043;-83
2022/08/15 02:52:27;;;;;;;15.45;13.88;;;;;;;;;;4932357;29;20134;-83
2022/08/15 02:54:53;;;;;;;15.07;13.60;;;;;;;;;;4932066;29;20106;-83
2022/08/15 02:57:18;;;;;;;15.20;12.82;;;;;;;;;;4914819;29;20039;-83
2022/08/15 02:59:46;;;;;;;13.95;12.48;;;;;;;;;;4930870;29;20024;-83
2022/08/15 03:02:14;;;;;;;16.80;13.40;;;;;;;;;;4916881;29;20036;-83
2022/08/15 03:04:39;;;;;;;17.27;13.18;;;;;;;;;;4917620;29;20035;-83
2022/08/15 03:07:05;;;;;;;14.98;13.57;;;;;;;;;;4928524;29;20090;-83
2022/08/15 03:09:30;;;;;;;15.63;14.02;;;;;;;;;;4944337;28;20036;-83
2022/08/15 03:11:57;;;;;;;15.77;14.23;;;;;;;;;;4916427;29;20608;-83
2022/08/15 03:14:23;;;;;;;15.85;14.23;;;;;;;;;;4912304;29;20023;-84
2022/08/15 03:16:49;;;;;;;17.13;15.32;;;;;;;;;;4934734;29;20492;-84
2022/08/15 03:19:18;;;;;;;17.15;15.30;;;;;;;;;;4885701;29;20035;-85
2022/08/15 03:21:44;;;;;;;16.35;14.80;;;;;;;;;;4886115;29;20035;-85
2022/08/15 03:24:10;;;;;;;20.30;15.45;;;;;;;;;;4901173;29;20039;-84
2022/08/15 03:26:35;;;;;;;17.25;15.40;;;;;;;;;;4884689;29;20035;-83
2022/08/15 03:29:01;;;;;;;15.63;13.98;;;;;;;;;;4883423;29;20093;-84
2022/08/15 03:31:26;;;;;;;15.40;13.93;;;;;;;;;;4914300;29;20039;-84
2022/08/15 03:33:52;;;;;;;16.33;14.70;;;;;;;;;;4884619;29;20027;-84
2022/08/15 03:36:19;;;;;;;16.23;14.52;;;;;;;;;;4900436;29;20038;-85
2022/08/15 03:38:45;;;;;;;15.05;13.45;;;;;;;;;;4921963;29;20027;-83
2022/08/15 03:41:10;;;;;;;17.05;15.25;;;;;;;;;;4904893;29;20473;-83
2022/08/15 03:43:37;;;;;;;17.15;15.30;;;;;;;;;;4881811;29;20031;-84
2022/08/15 03:46:05;;;;;;;16.60;14.93;;;;;;;;;;4911900;29;20051;-84
2022/08/15 03:48:32;;;;;;;17.13;15.32;;;;;;;;;;4884425;29;20044;-83
2022/08/15 03:50:58;;;;;;;16.30;14.60;;;;;;;;;;4878026;29;20036;-84
2022/08/15 03:53:24;;;;;;;19.83;15.38;;;;;;;;;;4910457;29;20055;-84
2022/08/15 03:55:49;;;;;;;17.83;14.38;;;;;;;;;;4870863;29;20027;-84
2022/08/15 03:58:15;;;;;;;15.48;13.60;;;;;;;;;;4893764;29;20119;-83
2022/08/15 04:00:46;;;;;;;17.27;13.70;;;;;;;;;;4865743;29;20031;-84
2022/08/15 04:03:12;;;;;;;17.00;13.75;;;;;;;;;;4880622;29;20102;-86
2022/08/15 04:05:38;;;;;;;19.88;14.13;;;;;;;;;;4881562;29;20103;-85
2022/08/15 04:08:05;;;;;;;15.63;13.95;;;;;;;;;;4894228;29;20088;-85
2022/08/15 04:10:30;;;;;;;16.08;14.32;;;;;;;;;;4924017;29;20583;-85
2022/08/15 04:12:55;;;;;;;15.60;14.10;;;;;;;;;;4897201;29;20544;-85
2022/08/15 04:15:21;;;;;;;18.92;14.18;;;;;;;;;;4900879;29;20030;-84
2022/08/15 04:17:47;;;;;;;19.10;14.43;;;;;;;;;;4904877;29;20084;-84
2022/08/15 04:20:12;;;;;;;16.38;14.68;;;;;;;;;;4882174;29;20560;-83
2022/08/15 04:22:42;;;;;;;16.58;14.90;;;;;;;;;;4896240;29;20091;-84
2022/08/15 04:25:27;;;;;;;16.33;14.77;;;;;;;;;;4896013;29;20219;-83
2022/08/15 04:27:53;;;;;;;15.70;13.93;;;;;;;;;;4877248;29;20485;-83
2022/08/15 04:30:20;;;;;;;17.40;14.60;;;;;;;;;;4897236;29;20067;-84
2022/08/15 04:32:46;;;;;;;15.80;13.98;;;;;;;;;;4881217;29;20264;-83
2022/08/15 04:35:14;;;;;;;15.68;14.02;;;;;;;;;;4913652;29;20110;-83
2022/08/15 04:37:39;;;;;;;15.40;13.18;;;;;;;;;;4893734;29;20147;-84
2022/08/15 04:40:06;;;;;;;16.25;14.55;;;;;;;;;;4879412;29;20499;-84
2022/08/15 04:42:32;;;;;;;15.15;13.35;;;;;;;;;;4880222;29;20040;-84
2022/08/15 04:44:57;;;;;;;17.02;14.73;;;;;;;;;;4911363;29;20040;-84
2022/08/15 04:47:22;;;;;;;14.30;12.90;;;;;;;;;;4892823;29;20044;-78
2022/08/15 04:49:49;;;;;;;15.63;13.68;;;;;;;;;;4897689;29;20087;-83
2022/08/15 04:52:19;;;;;;;15.05;13.45;;;;;;;;;;4909290;29;20040;-82
2022/08/15 04:54:45;;;;;;;15.20;13.60;;;;;;;;;;4877823;29;20393;-82
2022/08/15 04:57:11;;;;;;;16.08;13.98;;;;;;;;;;4880148;29;20028;-81
2022/08/15 04:59:36;;;;;;;15.00;13.43;;;;;;;;;;4903253;29;20039;-83
2022/08/15 05:02:05;;;;;;;15.60;14.10;;;;;;;;;;4878955;29;20036;-82
2022/08/15 05:04:31;;;;;;;14.85;13.43;;;;;;;;;;4872490;29;20034;-82
2022/08/15 05:06:57;;;;;;;16.00;14.30;;;;;;;;;;4894786;29;20087;-82
2022/08/15 05:09:22;;;;;;;17.67;13.93;;;;;;;;;;4849218;29;20150;-82
2022/08/15 05:11:48;;;;;;;14.10;12.70;;;;;;;;;;4893433;29;20032;-83
2022/08/15 05:14:13;;;;;;;13.82;12.45;;;;;;;;;;4913102;29;20568;-83
2022/08/15 05:16:40;;;;;;;15.10;12.18;;;;;;;;;;4913627;29;20062;-81
2022/08/15 05:19:05;;;;;;;15.63;13.60;;;;;;;;;;4886648;29;20392;-81
2022/08/15 05:21:31;;;;;;;15.13;13.63;;;;;;;;;;4898755;29;20107;-79
2022/08/15 05:23:56;;;;;;;14.60;12.98;;;;;;;;;;4910130;29;20527;-79
2022/08/15 05:26:23;;;;;;;15.52;13.93;;;;;;;;;;4914005;29;20032;-79
2022/08/15 05:28:48;;;;;;;16.27;14.60;;;;;;;;;;4897726;29;20123;-79
2022/08/15 05:31:13;;;;;;;14.80;13.40;;;;;;;;;;4883760;29;20036;-79
2022/08/15 05:33:39;;;;;;;21.83;14.30;;;;;;;;;;4901530;29;20038;-78
2022/08/15 05:36:06;;;;;;;16.48;13.98;;;;;;;;;;4934147;29;20086;-78
2022/08/15 05:38:36;;;;;;;17.02;14.40;;;;;;;;;;4895176;29;20421;-79
2022/08/15 05:41:07;;;;;;;18.70;15.18;;;;;;;;;;4912647;29;20063;-79
2022/08/15 05:43:41;;;;;;;16.38;14.65;;;;;;;;;;4904304;29;20044;-79
2022/08/15 05:46:35;;;;;;;15.98;14.15;;;;;;;;;;4912014;29;20063;-79
2022/08/15 05:49:19;;;;;;;;;;;;;;;;;;4913149;29;20024;-79
2022/08/15 05:51:46;;;;;;;;;;;;;;;;;;4902232;29;19915;-78
2022/08/15 05:54:23;;;;;;;21.35;13.13;;;;;;;;;;4919786;29;19919;-79
2022/08/15 05:57:34;;;;;;;14.07;12.63;;;;;;;;;;4909842;29;20036;-79
2022/08/15 06:00:03;;;;;;;15.65;12.45;;;;;;;;;;4880395;29;20095;-80
2022/08/15 06:02:48;;;;;;;14.68;13.15;;;;;;;;;;4911639;29;20246;-79
2022/08/15 06:05:20;;;;;;;17.95;14.77;;;;;;;;;;4907390;29;20027;-80
2022/08/15 06:07:47;;;;;;;16.15;14.48;;;;;;;;;;4908690;29;20040;-79
2022/08/15 06:10:37;;;;;;;16.17;13.90;;;;;;;;;;4895142;29;20063;-79
2022/08/15 06:13:11;;;;;;;21.60;16.25;;;;;;;;;;4918800;29;20036;-79
2022/08/15 06:16:04;;;;;;;17.45;15.57;;;;;;;;;;4892024;29;20035;-79
2022/08/15 06:18:30;;;;;;;18.08;16.13;;;;;;;;;;4893644;29;20084;-79
2022/08/15 06:21:01;;;;;;;17.80;14.60;;;;;;;;;;4878689;29;20071;-80
2022/08/15 06:23:48;;;;;;;17.00;15.27;;;;;;;;;;4877801;29;20496;-84
2022/08/15 06:26:36;;;;;;;27.83;16.00;;;;;;;;;;4913711;29;20479;-83
2022/08/15 06:29:19;;;;;;;32.03;15.98;;;;;;;;;;4880900;29;20028;-83
2022/08/15 06:31:53;;;;;;;17.55;15.70;;;;;;;;;;4878024;29;20476;-81
2022/08/15 06:34:34;;;;;;;18.55;15.07;;;;;;;;;;4879229;29;20115;-82
2022/08/15 06:37:07;;;;;;;18.55;15.85;;;;;;;;;;4893497;29;20446;-84
2022/08/15 06:39:49;;;;;;;18.27;15.35;;;;;;;;;;4893886;29;20040;-84
2022/08/15 06:42:24;;;;;;;17.63;14.98;;;;;;;;;;4922704;29;20078;-83
2022/08/15 06:44:49;;;;;;;18.05;15.30;;;;;;;;;;4923138;29;20488;-83
2022/08/15 06:47:15;;;;;;;16.45;14.70;;;;;;;;;;4914161;29;20031;-83
2022/08/15 06:49:42;;;;;;;17.85;15.65;;;;;;;;;;4907572;29;20042;-83
2022/08/15 06:52:07;;;;;;;25.17;15.63;;;;;;;;;;4874948;29;20059;-84
2022/08/15 06:54:33;;;;;;;17.50;15.82;;;;;;;;;;4908285;29;20036;-83
2022/08/15 06:57:27;;;;;;;20.05;14.95;;;;;;;;;;4895262;29;20043;-83
2022/08/15 07:00:31;;;;;;;17.55;15.75;;;;;;;;;;4905468;29;20048;-84
2022/08/15 07:03:04;;;;;;;19.73;15.65;;;;;;;;;;4881772;29;20047;-83
2022/08/15 07:05:41;;;;;;;16.92;15.13;;;;;;;;;;4885883;29;20023;-84
2022/08/15 07:08:13;;;;;;;16.77;14.82;;;;;;;;;;4902331;29;20027;-84
2022/08/15 07:10:51;;;;;;;17.13;14.15;;;;;;;;;;4919527;29;20034;-84
2022/08/15 07:13:20;;;;;;;17.17;15.05;;;;;;;;;;4915372;29;20123;-84
2022/08/15 07:15:50;;;;;;;15.98;14.38;;;;;;;;;;4882309;29;20040;-84
2022/08/15 07:18:34;;;;;;;19.83;16.05;;;;;;;;;;4912033;29;20087;-84
2022/08/15 07:21:03;;;;;;;17.52;14.77;;;;;;;;;;4896192;29;20036;-81
2022/08/15 07:23:30;;;;;;;19.80;17.05;;;;;;;;;;4894823;29;20480;-83
2022/08/15 07:26:06;;;;;;;19.08;17.17;;;;;;;;;;4049833;29;10000528;-83
2022/08/15 07:28:32;;;;;;;19.17;17.17;;;;;;;;;;4909089;29;20032;-84
2022/08/15 07:31:01;;;;;;;21.98;17.63;;;;;;;;;;4876115;29;20035;-83
2022/08/15 07:33:29;;;;;;;20.85;18.67;;;;;;;;;;4924162;29;20042;-84
2022/08/15 07:36:13;;;;;;;24.05;18.60;;;;;;;;;;4896634;29;20957;-83
2022/08/15 07:38:39;;;;;;;20.35;18.23;;;;;;;;;;4894980;29;20383;-83
2022/08/15 07:41:22;;;;;;;21.27;19.08;;;;;;;;;;4877608;29;20406;-84
2022/08/15 07:43:48;;;;;;;21.60;18.30;;;;;;;;;;4894113;29;20062;-82
2022/08/15 07:46:36;;;;;;;22.77;20.58;;;;;;;;;;4911481;29;20035;-85
2022/08/15 07:49:24;;;;;;;28.70;19.35;;;;;;;;;;4865692;29;20047;-85
2022/08/15 07:52:00;;;;;;;20.40;18.35;;;;;;;;;;4882949;29;20421;-83
2022/08/15 07:54:32;;;;;;;21.58;19.25;;;;;;;;;;4911365;29;20512;-82
2022/08/15 07:57:03;;;;;;;19.73;17.63;;;;;;;;;;4910917;29;20036;-83
2022/08/15 07:59:34;;;;;;;28.15;18.77;;;;;;;;;;4911792;29;20058;-83
2022/08/15 08:02:20;;;;;;;21.90;17.20;;;;;;;;;;4895229;29;20505;-83
2022/08/15 08:04:45;;;;;;;20.35;18.15;;;;;;;;;;4891002;29;20044;-84
2022/08/15 08:07:36;;;;;;;20.70;18.17;;;;;;;;;;4913436;29;20032;-83
2022/08/15 08:10:25;;;;;;;22.88;18.27;;;;;;;;;;4905584;29;20127;-82
2022/08/15 08:13:12;;;;;;;18.98;17.02;;;;;;;;;;4917467;29;20035;-83
2022/08/15 08:15:51;;;;;;;22.38;18.58;;;;;;;;;;4931236;29;20039;-82
2022/08/15 08:18:54;;;;;;;18.25;16.42;;;;;;;;;;4907853;29;20079;-82
2022/08/15 08:22:18;;;;;;;25.25;18.00;;;;;;;;;;4878290;29;20040;-82
2022/08/15 08:25:01;;;;;;;19.38;17.38;;;;;;;;;;4872996;29;20047;-81
2022/08/15 08:27:45;;;;;;;26.40;19.98;;;;;;;;;;4928331;29;20044;-82
2022/08/15 08:30:14;;;;;;;21.17;18.70;;;;;;;;;;4867148;29;20114;-85
2022/08/15 08:32:58;;;;;;;21.90;19.67;;;;;;;;;;4884305;29;20056;-83
2022/08/15 08:35:27;;;;;;;20.75;18.55;;;;;;;;;;4904809;29;20036;-83
2022/08/15 08:38:17;;;;;;;22.95;20.38;;;;;;;;;;4897727;29;20047;-82
2022/08/15 08:41:33;;;;;;;19.63;17.63;;;;;;;;;;4882620;29;20044;-83
2022/08/15 08:44:27;;;;;;;22.95;20.73;;;;;;;;;;4896037;29;20052;-81
2022/08/15 08:47:13;;;;;;;23.17;20.77;;;;;;;;;;4892482;29;20024;-83
2022/08/15 08:49:56;;;;;;;23.38;20.98;;;;;;;;;;4914598;29;20031;-83
2022/08/15 08:52:41;;;;;;;24.75;21.63;;;;;;;;;;4883354;29;20642;-84
2022/08/15 08:55:22;;;;;;;25.33;22.75;;;;;;;;;;4905936;29;20064;-83
2022/08/15 08:58:09;;;;;;;23.83;21.20;;;;;;;;;;4903432;29;20020;-83
2022/08/15 09:00:41;;;;;;;23.58;21.05;;;;;;;;;;4872473;29;20130;-82
2022/08/15 09:03:14;;;;;;;24.37;20.17;;;;;;;;;;4911002;29;20052;-82
2022/08/15 09:05:44;;;;;;;23.45;21.15;;;;;;;;;;4903522;29;20058;-82
2022/08/15 09:08:14;;;;;;;35.50;25.27;;;;;;;;;;4916959;29;20440;-81
2022/08/15 09:10:41;;;;;;;44.28;26.67;;;;;;;;;;4916370;29;20373;-83
2022/08/15 09:15:51;;;;;;;32.60;26.77;;;;;;;;;;4881809;29;20039;-82
2022/08/15 09:18:28;;;;;;;30.38;26.92;;;;;;;;;;4878328;29;20032;-80
2022/08/15 09:20:53;;;;;;;32.80;27.48;;;;;;;;;;4895871;29;20039;-81
2022/08/15 09:23:20;;;;;;;34.20;28.38;;;;;;;;;;4912969;29;20067;-81
2022/08/15 09:26:04;;;;;;;35.53;31.85;;;;;;;;;;4895985;29;20504;-81
2022/08/15 09:28:38;;;;;;;34.78;30.92;;;;;;;;;;4911924;29;20035;-81
2022/08/15 09:31:14;;;;;;;33.40;29.70;;;;;;;;;;4878411;29;20046;-81
2022/08/15 09:33:54;;;;;;;37.65;32.08;;;;;;;;;;4907174;29;20055;-80
2022/08/15 09:36:35;;;;;;;40.15;33.72;;;;;;;;;;4878106;29;20032;-80
2022/08/15 09:39:23;;;;;;;39.08;34.85;;;;;;;;;;4897857;29;20044;-80
2022/08/15 09:42:27;;;;;;;38.38;34.25;;;;;;;;;;4882764;29;20078;-79
2022/08/15 09:45:32;;;;;;;35.10;31.30;;;;;;;;;;4867289;29;20036;-80
2022/08/15 09:48:33;;;;;;;38.05;32.78;;;;;;;;;;4917276;29;20558;-80
2022/08/15 09:51:13;;;;;;;34.33;30.73;;;;;;;;;;4847925;29;20035;-80
2022/08/15 09:53:54;;;;;;;37.00;30.30;;;;;;;;;;4881262;29;20031;-80
2022/08/15 09:56:20;;;;;;;34.05;28.45;;;;;;;;;;4880366;29;20063;-80
2022/08/15 09:58:54;;;;;;;30.33;27.33;;;;;;;;;;4877152;29;20110;-81
2022/08/15 10:01:23;;;;;;;32.08;28.92;;;;;;;;;;4875964;29;20217;-81
2022/08/15 10:03:50;;;;;;;31.42;27.75;;;;;;;;;;4885165;29;20551;-81
2022/08/15 10:06:46;;;;;;;30.48;26.13;;;;;;;;;;4889041;29;20024;-82
2022/08/15 10:09:17;;;;;;;30.23;26.95;;;;;;;;;;4873694;29;20043;-81
2022/08/15 10:11:46;;;;;;;29.45;26.33;;;;;;;;;;4907381;29;20025;-80
2022/08/15 10:14:21;;;;;;;29.35;26.55;;;;;;;;;;4898968;29;20036;-80
2022/08/15 10:16:50;;;;;;;31.25;28.23;;;;;;;;;;4896145;29;20095;-80
2022/08/15 10:19:32;;;;;;;29.88;26.85;;;;;;;;;;4886429;29;20488;-80
2022/08/15 10:21:59;;;;;;;30.48;27.50;;;;;;;;;;4884153;29;20392;-81
2022/08/15 10:24:32;;;;;;;30.95;27.58;;;;;;;;;;4894008;29;20480;-82
2022/08/15 10:27:09;;;;;;;;;;;;;;;;;;4909370;29;20373;-82
2022/08/15 10:29:36;;;;;;;30.35;27.50;;;;;;;;;;4893938;29;19967;-82
2022/08/15 10:32:02;;;;;;;31.02;28.00;;;;;;;;;;4894900;29;20023;-82
2022/08/15 10:34:38;;;;;;;31.20;28.13;;;;;;;;;;4889450;29;20441;-82
2022/08/15 10:37:23;;;;;;;30.98;28.17;;;;;;;;;;4860550;29;20032;-82
2022/08/15 10:40:11;;;;;;;31.45;28.33;;;;;;;;;;4894280;29;20041;-82
2022/08/15 10:42:44;;;;;;;32.78;29.27;;;;;;;;;;4912400;29;20039;-82
2022/08/15 10:45:27;;;;;;;33.47;30.25;;;;;;;;;;4929455;29;20491;-83
2022/08/15 10:48:09;;;;;;;32.00;28.63;;;;;;;;;;4900335;29;20055;-83
2022/08/15 10:51:01;;;;;;;30.47;27.57;;;;;;;;;;4918549;29;20031;-82
2022/08/15 10:53:29;;;;;;;31.15;27.95;;;;;;;;;;4911170;29;20059;-81
2022/08/15 10:56:16;;;;;;;30.63;27.48;;;;;;;;;;4926978;29;20534;-80
2022/08/15 10:58:42;;;;;;;33.15;29.77;;;;;;;;;;4929029;29;20372;-82
2022/08/15 11:01:22;;;;;;;29.52;26.52;;;;;;;;;;4914072;29;20043;-83
2022/08/15 11:03:58;;;;;;;32.78;29.55;;;;;;;;;;4886588;29;20035;-83
2022/08/15 11:06:23;;;;;;;31.55;28.65;;;;;;;;;;4901252;29;20087;-83
2022/08/15 11:08:53;;;;;;;34.03;30.52;;;;;;;;;;4881897;29;20031;-82
2022/08/15 11:11:21;;;;;;;31.70;28.33;;;;;;;;;;4906636;29;20052;-82
2022/08/15 11:13:52;;;;;;;31.70;28.63;;;;;;;;;;4931657;29;20123;-82
2022/08/15 11:16:18;;;;;;;24.35;18.45;;;;;;;;;;4933026;29;20039;-82
2022/08/15 11:18:49;;;;;;;19.70;17.73;;;;;;;;;;4934826;29;20024;-82
2022/08/15 11:21:26;;;;;;;15.73;12.52;;;;;;;;;;4884377;29;20027;-82
2022/08/15 11:23:58;;;;;;;14.95;13.27;;;;;;;;;;4945642;29;20396;-82
2022/08/15 11:26:27;;;;;;;16.20;10.90;;;;;;;;;;4900063;29;20144;-82
2022/08/15 11:29:15;;;;;;;13.20;10.45;;;;;;;;;;4915653;29;20028;-82
2022/08/15 11:31:47;;;;;;;15.38;9.63;;;;;;;;;;4931350;29;20036;-82
2022/08/15 11:34:31;;;;;;;17.00;9.77;;;;;;;;;;4938907;29;20560;-83
2022/08/15 11:37:09;;;;;;;13.75;8.75;;;;;;;;;;4916536;29;20036;-83
2022/08/15 11:39:37;;;;;;;15.93;8.20;;;;;;;;;;4939392;28;20019;-82
2022/08/15 11:42:03;;;;;;;10.70;7.50;;;;;;;;;;4944721;28;20119;-82
2022/08/15 11:45:00;;;;;;;11.27;7.75;;;;;;;;;;4889538;29;20487;-82
2022/08/15 11:47:26;;;;;;;10.63;6.97;;;;;;;;;;4912552;29;20130;-81
2022/08/15 11:49:53;;;;;;;9.80;6.70;;;;;;;;;;4897807;29;20104;-81
2022/08/15 11:52:46;;;;;;;8.68;6.50;;;;;;;;;;4942762;29;20424;-81
2022/08/15 11:55:40;;;;;;;9.18;5.03;;;;;;;;;;4898023;29;20223;-82
2022/08/15 11:58:12;;;;;;;7.97;4.97;;;;;;;;;;4922604;29;20078;-81
2022/08/15 12:00:37;;;;;;;8.50;4.65;;;;;;;;;;4938546;29;20086;-82
2022/08/15 12:03:24;;;;;;;6.43;4.63;;;;;;;;;;4922668;29;20035;-82
2022/08/15 12:05:51;;;;;;;8.75;3.97;;;;;;;;;;4921246;29;20043;-82
2022/08/15 12:08:21;;;;;;;8.40;4.03;;;;;;;;;;4885344;29;20407;-82
2022/08/15 12:10:47;;;;;;;6.88;3.50;;;;;;;;;;4907859;29;20028;-81
2022/08/15 12:13:16;;;;;;;10.63;4.05;;;;;;;;;;4895523;29;20059;-83
2022/08/15 12:15:43;;;;;;;9.40;4.05;;;;;;;;;;4917719;29;20031;-83
2022/08/15 12:18:22;;;;;;;8.32;3.85;;;;;;;;;;4891359;29;20527;-83
2022/08/15 12:20:59;;;;;;;5.57;3.53;;;;;;;;;;4939179;28;20044;-82
2022/08/15 12:23:30;;;;;;;6.85;4.13;;;;;;;;;;4928171;29;20055;-82
2022/08/15 12:26:00;;;;;;;7.15;4.22;;;;;;;;;;4920100;29;20094;-82
2022/08/15 12:28:26;;;;;;;9.38;4.32;;;;;;;;;;4910528;29;20031;-82
2022/08/15 12:30:55;;;;;;;6.68;4.30;;;;;;;;;;4911467;29;20024;-82
2022/08/15 12:33:21;;;;;;;7.93;3.72;;;;;;;;;;4923273;29;20051;-82
2022/08/15 12:35:48;;;;;;;7.88;4.03;;;;;;;;;;4923844;29;20090;-82
2022/08/15 12:38:14;;;;;;;8.15;3.53;;;;;;;;;;4911874;29;20031;-82
2022/08/15 12:40:39;;;;;;;7.95;3.92;;;;;;;;;;4893846;29;20270;-82
2022/08/15 12:43:05;;;;;;;5.97;3.47;;;;;;;;;;4877526;29;20036;-81
2022/08/15 12:45:30;;;;;;;7.68;4.75;;;;;;;;;;4916348;29;20031;-82
2022/08/15 12:47:55;;;;;;;5.15;3.40;;;;;;;;;;4886752;29;20777;-82
2022/08/15 12:50:21;;;;;;;7.65;3.80;;;;;;;;;;4928058;29;20098;-81
2022/08/15 12:52:48;;;;;;;10.27;4.40;;;;;;;;;;4908415;29;20499;-81
2022/08/15 12:55:13;;;;;;;7.15;3.70;;;;;;;;;;4915291;29;20063;-81
2022/08/15 12:57:38;;;;;;;7.18;3.65;;;;;;;;;;4901725;29;20055;-83
2022/08/15 13:00:04;;;;;;;7.28;3.50;;;;;;;;;;4868124;29;20055;-81
2022/08/15 13:02:30;;;;;;;5.78;3.20;;;;;;;;;;4900671;29;20556;-80
2022/08/15 13:04:55;;;;;;;6.22;3.42;;;;;;;;;;4948910;29;20098;-80
2022/08/15 13:07:22;;;;;;;5.53;3.33;;;;;;;;;;4933572;29;20091;-80
2022/08/15 13:09:48;;;;;;;8.60;3.28;;;;;;;;;;4896470;29;20036;-80
2022/08/15 13:12:13;;;;;;;7.43;3.25;;;;;;;;;;4923561;29;20032;-80
2022/08/15 13:14:39;;;;;;;6.70;3.75;;;;;;;;;;4895238;29;20408;-80
2022/08/15 13:17:04;;;;;;;3.95;3.17;;;;;;;;;;4915998;29;20242;-80
2022/08/15 13:23:34;;;;;;;5.50;3.30;;;;;;;;;;4934277;29;20563;-80
2022/08/15 13:25:06;;;;;;;5.47;3.65;;;;;;;;;;4952181;29;20114;-81
2022/08/15 13:27:32;;;;;;;5.82;3.35;;;;;;;;;;4954207;29;20038;-80
2022/08/15 13:29:57;;;;;;;8.18;3.72;;;;;;;;;;4909550;29;20031;-80
2022/08/15 13:32:23;;;;;;;8.77;3.83;;;;;;;;;;4913973;29;20473;-80
2022/08/15 13:34:49;;;;;;;3.70;3.05;;;;;;;;;;4917236;29;20035;-79
2022/08/15 13:37:14;;;;;;;9.35;3.72;;;;;;;;;;4874279;29;20499;-81
2022/08/15 13:39:40;;;;;;;5.03;3.40;;;;;;;;;;4903944;29;20090;-81
2022/08/15 13:42:05;;;;;;;6.97;3.75;;;;;;;;;;4934646;29;20102;-80
2022/08/15 13:44:31;;;;;;;9.27;4.30;;;;;;;;;;4912850;29;20106;-81
2022/08/15 13:46:58;;;;;;;6.18;3.60;;;;;;;;;;4904564;29;20562;-81
2022/08/15 13:49:23;;;;;;;4.70;3.30;;;;;;;;;;4914712;29;20022;-79
2022/08/15 13:51:51;;;;;;;7.15;3.80;;;;;;;;;;4916971;29;20468;-80
2022/08/15 13:54:18;;;;;;;9.93;4.05;;;;;;;;;;4886675;29;20027;-79
2022/08/15 13:56:43;;;;;;;6.97;4.53;;;;;;;;;;4887064;29;20374;-80
2022/08/15 13:59:09;;;;;;;7.38;4.95;;;;;;;;;;4911594;29;20101;-79
2022/08/15 14:01:34;;;;;;;13.27;4.07;;;;;;;;;;4934968;29;20488;-80
2022/08/15 14:04:09;;;;;;;10.65;4.90;;;;;;;;;;4929919;29;20031;-80
2022/08/15 14:06:35;;;;;;;5.78;4.30;;;;;;;;;;4917120;29;20063;-80
2022/08/15 14:09:00;;;;;;;7.25;3.90;;;;;;;;;;4899518;29;20063;-80
2022/08/15 14:11:26;;;;;;;5.82;3.80;;;;;;;;;;4941030;29;20036;-80
2022/08/15 14:13:51;;;;;;;8.27;4.60;;;;;;;;;;4898494;29;20118;-80
2022/08/15 14:16:17;;;;;;;5.88;3.55;;;;;;;;;;4886605;29;20497;-80
2022/08/15 14:18:43;;;;;;;9.02;3.28;;;;;;;;;;4926758;29;20027;-80
2022/08/15 14:21:09;;;;;;;11.32;4.45;;;;;;;;;;4926969;29;20028;-80
2022/08/15 14:23:34;;;;;;;7.45;4.22;;;;;;;;;;4927988;29;20035;-79
2022/08/15 14:26:03;;;;;;;10.57;4.25;;;;;;;;;;4909806;29;20034;-79
2022/08/15 14:28:29;;;;;;;8.40;4.53;;;;;;;;;;4892780;29;20514;-79
2022/08/15 14:30:54;;;;;;;10.13;4.47;;;;;;;;;;4910992;29;20069;-81
2022/08/15 14:33:20;;;;;;;6.47;4.40;;;;;;;;;;4936357;29;20038;-79
2022/08/15 14:35:45;;;;;;;10.10;4.90;;;;;;;;;;4925869;29;20062;-79
2022/08/15 14:38:11;;;;;;;8.88;4.32;;;;;;;;;;4903530;29;20083;-79
2022/08/15 14:40:37;;;;;;;9.15;4.32;;;;;;;;;;4928147;29;20537;-79
2022/08/15 14:43:04;;;;;;;11.70;4.82;;;;;;;;;;4880406;29;20090;-78
2022/08/15 14:45:31;;;;;;;7.97;5.03;;;;;;;;;;4927368;29;20051;-79
2022/08/15 14:47:56;;;;;;;10.80;5.40;;;;;;;;;;4927652;29;20028;-79
2022/08/15 14:50:22;;;;;;;12.43;4.63;;;;;;;;;;4866165;29;20047;-79
2022/08/15 14:52:48;;;;;;;10.80;4.72;;;;;;;;;;4926790;29;20455;-79
2022/08/15 14:55:14;;;;;;;9.52;4.90;;;;;;;;;;4895981;29;20035;-79